createdAt,value
2019-02-21T00:01:45.672Z,20.17
2019-02-21T00:04:19.633Z,22.33
2019-02-21T00:06:51.262Z,21.77
2019-02-21T00:09:25.206Z,20.13
2019-02-21T00:11:57.805Z,21.63
2019-02-21T00:14:29.780Z,21.00
2019-02-21T00:17:01.770Z,22.03
2019-02-21T00:19:33.908Z,22.70
2019-02-21T00:22:05.808Z,21.90
2019-02-21T00:24:38.281Z,21.57
2019-02-21T00:27:10.348Z,20.57
2019-02-21T00:29:42.028Z,20.63
2019-02-21T00:32:13.644Z,20.93
2019-02-21T00:34:45.614Z,21.17
2019-02-21T00:37:17.580Z,22.60
2019-02-21T00:39:48.977Z,22.03
2019-02-21T00:42:21.308Z,22.13
2019-02-21T00:44:52.952Z,21.27
2019-02-21T00:47:26.020Z,22.07
2019-02-21T00:49:57.339Z,20.60
2019-02-21T00:52:31.330Z,22.13
2019-02-21T00:55:02.373Z,20.83
2019-02-21T00:57:34.189Z,20.43
2019-02-21T01:00:06.702Z,21.67
2019-02-21T01:02:38.472Z,21.90
2019-02-21T01:05:11.953Z,21.77
2019-02-21T01:07:43.308Z,20.73
2019-02-21T01:10:15.415Z,21.23
2019-02-21T01:12:48.073Z,22.67
2019-02-21T01:15:19.872Z,22.23
2019-02-21T01:17:51.965Z,22.23
2019-02-21T01:20:23.449Z,22.07
2019-02-21T01:22:55.158Z,21.97
2019-02-21T01:25:28.175Z,21.47
2019-02-21T01:28:02.566Z,21.07
2019-02-21T01:30:34.071Z,20.53
2019-02-21T01:33:07.150Z,21.53
2019-02-21T01:35:40.444Z,22.43
2019-02-21T01:38:12.257Z,22.10
2019-02-21T01:40:43.839Z,24.03
2019-02-21T01:43:16.447Z,22.63
2019-02-21T01:45:48.011Z,25.63
2019-02-21T01:48:19.611Z,24.77
2019-02-21T01:50:50.916Z,24.47
2019-02-21T01:53:22.337Z,26.10
2019-02-21T01:55:53.753Z,26.00
2019-02-21T01:58:25.298Z,25.03
2019-02-21T02:01:07.589Z,24.50
2019-02-21T02:03:29.599Z,24.17
2019-02-21T02:06:01.027Z,23.87
2019-02-21T02:08:32.548Z,23.97
2019-02-21T02:11:03.782Z,24.53
2019-02-21T02:13:35.128Z,24.20
2019-02-21T02:16:08.124Z,23.00
2019-02-21T02:18:40.240Z,23.03
2019-02-21T02:21:12.613Z,23.37
2019-02-21T02:23:44.346Z,22.53
2019-02-21T02:26:15.934Z,22.93
2019-02-21T02:28:47.720Z,21.37
2019-02-21T02:31:23.227Z,22.40
2019-02-21T02:33:52.062Z,23.13
2019-02-21T02:36:25.012Z,22.20
2019-02-21T02:38:57.863Z,20.07
2019-02-21T02:41:29.318Z,20.67
2019-02-21T02:44:00.594Z,20.93
2019-02-21T02:46:32.041Z,20.77
2019-02-21T02:49:03.611Z,20.53
2019-02-21T02:51:36.154Z,20.03
2019-02-21T02:54:07.483Z,22.07
2019-02-21T02:56:39.151Z,21.03
2019-02-21T02:59:10.562Z,20.53
2019-02-21T03:01:42.722Z,20.90
2019-02-21T03:04:14.080Z,20.70
2019-02-21T03:06:45.633Z,20.20
2019-02-21T03:09:17.615Z,21.93
2019-02-21T03:11:51.722Z,21.77
2019-02-21T03:14:22.263Z,21.80
2019-02-21T03:16:55.258Z,20.70
2019-02-21T03:19:26.787Z,21.10
2019-02-21T03:21:58.128Z,20.77
2019-02-21T03:24:29.449Z,19.83
2019-02-21T03:27:02.040Z,20.60
2019-02-21T03:29:33.441Z,20.40
2019-02-21T03:32:05.172Z,21.60
2019-02-21T03:34:36.540Z,22.10
2019-02-21T03:37:08.621Z,21.53
2019-02-21T03:39:39.991Z,22.77
2019-02-21T03:42:11.433Z,21.87
2019-02-21T03:44:43.081Z,21.50
2019-02-21T03:47:15.085Z,22.93
2019-02-21T03:49:46.365Z,22.10
2019-02-21T03:52:17.799Z,22.50
2019-02-21T03:54:50.006Z,22.20
2019-02-21T03:57:22.376Z,22.63
2019-02-21T03:59:54.459Z,21.80
2019-02-21T04:02:26.028Z,22.97
2019-02-21T04:04:57.366Z,22.67
2019-02-21T04:07:28.941Z,22.67
2019-02-21T04:10:01.692Z,23.37
2019-02-21T04:12:34.552Z,23.23
2019-02-21T04:15:06.686Z,23.83
2019-02-21T04:17:38.070Z,23.30
2019-02-21T04:20:10.112Z,23.37
2019-02-21T04:22:41.394Z,21.87
2019-02-21T04:25:13.151Z,24.20
2019-02-21T04:27:44.824Z,24.03
2019-02-21T04:30:17.007Z,22.80
2019-02-21T04:32:48.784Z,25.07
2019-02-21T04:35:20.329Z,26.10
2019-02-21T04:37:51.765Z,25.63
2019-02-21T04:40:23.077Z,24.83
2019-02-21T04:42:56.208Z,25.87
2019-02-21T04:45:28.688Z,26.17
2019-02-21T04:48:00.036Z,24.97
2019-02-21T04:50:32.538Z,25.23
2019-02-21T04:53:04.048Z,24.57
2019-02-21T04:55:35.407Z,24.27
2019-02-21T04:58:10.152Z,24.90
2019-02-21T05:00:42.176Z,26.33
2019-02-21T05:03:13.901Z,25.77
2019-02-21T05:05:45.512Z,26.87
2019-02-21T05:08:16.864Z,27.20
2019-02-21T05:10:48.335Z,26.23
2019-02-21T05:13:19.781Z,27.07
2019-02-21T05:15:51.262Z,27.03
2019-02-21T05:18:23.654Z,27.70
2019-02-21T05:20:55.085Z,27.53
2019-02-21T05:23:26.858Z,30.67
2019-02-21T05:25:58.261Z,30.77
2019-02-21T05:28:31.363Z,31.67
2019-02-21T05:31:09.973Z,31.73
2019-02-21T05:34:04.862Z,31.37
2019-02-21T05:36:57.984Z,31.93
2019-02-21T05:39:38.366Z,32.47
2019-02-21T05:42:29.858Z,32.73
2019-02-21T05:45:34.795Z,35.93
2019-02-21T05:48:15.493Z,36.80
2019-02-21T05:51:14.845Z,37.17
2019-02-21T05:54:12.724Z,39.13
2019-02-21T05:57:11.819Z,36.50
2019-02-21T06:00:06.638Z,37.40
2019-02-21T06:02:53.122Z,38.33
2019-02-21T06:05:36.907Z,40.07
2019-02-21T06:08:45.872Z,37.70
2019-02-21T06:11:42.365Z,39.13
2019-02-21T06:14:32.662Z,39.00
2019-02-21T06:17:28.947Z,36.93
2019-02-21T06:20:20.204Z,40.30
2019-02-21T06:23:02.597Z,39.67
2019-02-21T06:25:59.105Z,39.17
2019-02-21T06:28:56.969Z,38.00
2019-02-21T06:31:28.439Z,38.47
2019-02-21T06:34:00.700Z,36.73
2019-02-21T06:36:32.772Z,37.03
2019-02-21T06:39:08.133Z,39.90
2019-02-21T06:41:42.471Z,49.37
2019-02-21T06:44:12.863Z,39.37
2019-02-21T06:46:44.560Z,41.07
2019-02-21T06:49:19.524Z,39.10
2019-02-21T06:51:50.863Z,40.90
2019-02-21T06:54:24.312Z,40.10
2019-02-21T06:56:55.868Z,42.77
2019-02-21T06:59:28.346Z,40.67
2019-02-21T07:02:01.227Z,39.83
2019-02-21T07:04:33.469Z,37.90
2019-02-21T07:07:05.040Z,37.93
2019-02-21T07:09:36.450Z,38.43
2019-02-21T07:12:10.479Z,38.77
2019-02-21T07:14:41.356Z,39.23
2019-02-21T07:17:14.222Z,44.07
2019-02-21T07:19:45.881Z,43.77
2019-02-21T07:22:17.919Z,45.53
2019-02-21T07:24:54.243Z,43.17
2019-02-21T07:27:25.735Z,45.10
2019-02-21T07:29:58.382Z,51.50
2019-02-21T07:32:29.886Z,52.53
2019-02-21T07:35:02.722Z,48.33
2019-02-21T07:37:34.139Z,42.63
2019-02-21T07:40:05.805Z,45.70
2019-02-21T07:42:38.615Z,41.93
2019-02-21T07:45:10.529Z,43.33
2019-02-21T07:47:42.418Z,42.20
2019-02-21T07:50:13.939Z,42.83
2019-02-21T07:52:46.650Z,41.97
2019-02-21T07:55:19.728Z,46.03
2019-02-21T07:57:52.157Z,45.30
2019-02-21T08:00:24.336Z,46.00
2019-02-21T08:02:56.036Z,49.87
2019-02-21T08:05:27.483Z,48.20
2019-02-21T08:08:00.399Z,48.87
2019-02-21T08:10:33.861Z,44.97
2019-02-21T08:13:06.509Z,42.50
2019-02-21T08:15:38.420Z,46.97
2019-02-21T08:18:10.181Z,45.70
2019-02-21T08:20:41.895Z,43.60
2019-02-21T08:23:13.349Z,42.93
2019-02-21T08:25:44.904Z,44.73
2019-02-21T08:28:16.467Z,43.37
2019-02-21T08:30:48.014Z,42.10
2019-02-21T08:33:32.348Z,41.17
2019-02-21T08:36:03.858Z,38.97
2019-02-21T08:38:35.293Z,38.43
2019-02-21T08:41:07.064Z,38.13
2019-02-21T08:43:39.267Z,37.40
2019-02-21T08:46:10.653Z,35.33
2019-02-21T08:48:42.085Z,34.53
2019-02-21T08:51:13.510Z,34.83
2019-02-21T08:53:45.243Z,35.13
2019-02-21T08:56:16.727Z,35.57
2019-02-21T08:58:48.208Z,34.57
2019-02-21T09:01:20.073Z,34.20
2019-02-21T09:03:51.440Z,32.77
2019-02-21T09:06:24.869Z,34.40
2019-02-21T09:08:58.051Z,32.57
2019-02-21T09:11:29.584Z,34.50
2019-02-21T09:14:01.097Z,32.37
2019-02-21T09:16:34.076Z,32.43
2019-02-21T09:19:05.813Z,30.67
2019-02-21T09:21:37.189Z,30.97
2019-02-21T09:24:08.691Z,29.60
2019-02-21T09:26:40.119Z,27.03
2019-02-21T09:29:13.159Z,28.40
2019-02-21T09:31:44.634Z,28.60
2019-02-21T09:34:21.153Z,27.47
2019-02-21T09:36:50.685Z,24.97
2019-02-21T09:39:22.432Z,24.87
2019-02-21T09:41:53.915Z,24.40
2019-02-21T09:44:27.323Z,24.67
2019-02-21T09:46:58.912Z,22.83
2019-02-21T09:49:31.163Z,21.97
2019-02-21T09:52:04.561Z,21.97
2019-02-21T09:54:39.928Z,22.07
2019-02-21T09:57:13.539Z,21.50
2019-02-21T09:59:47.485Z,22.13
2019-02-21T10:02:19.059Z,22.27
2019-02-21T10:05:05.405Z,23.50
2019-02-21T10:07:37.116Z,23.73
2019-02-21T10:10:11.720Z,22.17
2019-02-21T10:12:43.637Z,22.50
2019-02-21T10:15:16.102Z,20.90
2019-02-21T10:17:47.612Z,20.93
2019-02-21T10:20:19.875Z,20.70
2019-02-21T10:22:51.731Z,19.50
2019-02-21T10:25:25.126Z,18.40
2019-02-21T10:27:59.030Z,18.30
2019-02-21T10:30:31.308Z,19.07
2019-02-21T10:33:03.971Z,18.37
2019-02-21T10:35:36.635Z,17.87
2019-02-21T10:38:08.345Z,16.87
2019-02-21T10:40:39.836Z,19.23
2019-02-21T10:43:11.096Z,17.70
2019-02-21T10:45:47.783Z,16.57
2019-02-21T10:48:15.707Z,16.73
2019-02-21T10:50:47.301Z,15.73
2019-02-21T10:53:19.654Z,16.07
2019-02-21T10:55:50.985Z,15.20
2019-02-21T10:58:24.087Z,15.27
2019-02-21T11:00:56.934Z,14.73
2019-02-21T11:03:28.865Z,14.40
2019-02-21T11:06:00.315Z,12.87
2019-02-21T11:08:32.539Z,13.00
2019-02-21T11:11:04.387Z,12.00
2019-02-21T11:13:42.987Z,11.00
2019-02-21T11:16:16.327Z,11.53
2019-02-21T11:18:49.691Z,11.70
2019-02-21T11:21:23.955Z,10.53
2019-02-21T11:23:56.427Z,9.73
2019-02-21T11:26:28.080Z,10.13
2019-02-21T11:29:00.261Z,9.40
2019-02-21T11:31:31.732Z,9.93
2019-02-21T11:34:05.353Z,8.57
2019-02-21T11:36:37.011Z,7.67
2019-02-21T11:39:09.469Z,7.90
2019-02-21T11:41:40.937Z,8.00
2019-02-21T11:44:12.444Z,8.03
2019-02-21T11:46:47.647Z,7.50
2019-02-21T11:49:19.629Z,7.77
2019-02-21T11:51:51.197Z,8.27
2019-02-21T11:54:27.207Z,8.33
2019-02-21T11:56:57.855Z,8.27
2019-02-21T11:59:29.307Z,7.97
2019-02-21T12:02:00.698Z,6.00
2019-02-21T12:04:32.320Z,6.63
2019-02-21T12:07:07.314Z,6.03
2019-02-21T12:09:39.030Z,5.20
2019-02-21T12:12:13.286Z,6.20
2019-02-21T12:14:44.722Z,5.63
2019-02-21T12:17:16.060Z,6.50
2019-02-21T12:19:47.530Z,6.67
2019-02-21T12:22:18.860Z,7.10
2019-02-21T12:24:50.517Z,8.63
2019-02-21T12:27:21.978Z,7.17
2019-02-21T12:29:55.016Z,7.77
2019-02-21T12:32:26.522Z,7.40
2019-02-21T12:34:57.858Z,7.13
2019-02-21T12:37:30.730Z,7.07
2019-02-21T12:40:02.370Z,7.80
2019-02-21T12:42:35.756Z,7.20
2019-02-21T12:45:08.974Z,7.00
2019-02-21T12:47:50.885Z,8.07
2019-02-21T12:50:15.984Z,7.13
2019-02-21T12:52:47.389Z,7.20
2019-02-21T12:55:28.070Z,8.03
2019-02-21T12:57:53.882Z,8.17
2019-02-21T13:00:25.521Z,8.30
2019-02-21T13:02:56.894Z,7.30
2019-02-21T13:05:40.096Z,7.53
2019-02-21T13:08:02.451Z,6.73
2019-02-21T13:10:36.049Z,7.07
2019-02-21T13:13:08.715Z,6.97
2019-02-21T13:15:39.996Z,7.20
2019-02-21T13:18:15.787Z,7.73
2019-02-21T13:20:45.390Z,7.63
2019-02-21T13:23:17.276Z,7.23
2019-02-21T13:25:48.995Z,8.33
2019-02-21T13:28:22.765Z,8.40
2019-02-21T13:30:54.625Z,8.40
2019-02-21T13:33:25.979Z,8.57
2019-02-21T13:35:57.403Z,8.50
2019-02-21T13:38:28.871Z,8.90
2019-02-21T13:41:00.299Z,8.67
2019-02-21T13:43:32.232Z,8.80
2019-02-21T13:46:04.412Z,9.27
2019-02-21T13:48:37.303Z,8.93
2019-02-21T13:51:10.477Z,9.00
2019-02-21T13:53:42.169Z,9.90
2019-02-21T13:56:13.623Z,9.70
2019-02-21T13:58:46.714Z,9.57
2019-02-21T14:01:18.686Z,9.60
2019-02-21T14:03:53.731Z,9.37
2019-02-21T14:06:25.202Z,10.20
2019-02-21T14:08:57.831Z,9.93
2019-02-21T14:11:30.799Z,9.47
2019-02-21T14:14:04.003Z,10.37
2019-02-21T14:16:43.818Z,10.40
2019-02-21T14:19:10.261Z,10.43
2019-02-21T14:21:43.753Z,10.83
2019-02-21T14:24:15.750Z,10.60
2019-02-21T14:26:47.108Z,10.97
2019-02-21T14:29:18.837Z,11.33
2019-02-21T14:31:50.261Z,10.83
2019-02-21T14:34:21.847Z,10.63
2019-02-21T14:36:54.358Z,11.50
2019-02-21T14:39:26.813Z,10.60
2019-02-21T14:41:58.150Z,11.27
2019-02-21T14:44:29.508Z,10.53
2019-02-21T14:47:01.227Z,10.50
2019-02-21T14:49:34.462Z,10.67
2019-02-21T14:52:07.550Z,11.10
2019-02-21T14:54:38.996Z,10.77
2019-02-21T14:57:10.677Z,10.50
2019-02-21T14:59:44.561Z,11.03
2019-02-21T15:02:15.391Z,11.50
2019-02-21T15:04:47.306Z,11.17
2019-02-21T15:07:21.216Z,11.27
2019-02-21T15:09:52.518Z,10.67
2019-02-21T15:12:24.283Z,10.80
2019-02-21T15:14:55.758Z,10.53
2019-02-21T15:17:28.473Z,11.10
2019-02-21T15:20:00.415Z,10.53
2019-02-21T15:22:34.874Z,10.23
2019-02-21T15:25:07.013Z,9.80
2019-02-21T15:27:39.025Z,10.73
2019-02-21T15:30:13.075Z,10.70
2019-02-21T15:32:45.063Z,11.00
2019-02-21T15:35:19.315Z,11.37
2019-02-21T15:37:50.623Z,10.83
2019-02-21T15:40:22.093Z,9.97
2019-02-21T15:42:53.567Z,10.17
2019-02-21T15:45:24.933Z,9.93
2019-02-21T15:47:56.475Z,9.67
2019-02-21T15:50:28.428Z,9.00
2019-02-21T15:52:59.841Z,9.17
2019-02-21T15:55:32.253Z,8.67
2019-02-21T15:58:04.671Z,8.63
2019-02-21T16:00:36.659Z,7.33
2019-02-21T16:03:10.011Z,7.60
2019-02-21T16:05:41.663Z,7.27
2019-02-21T16:08:13.194Z,6.90
2019-02-21T16:10:45.288Z,7.70
2019-02-21T16:13:17.073Z,8.30
2019-02-21T16:15:50.536Z,6.90
2019-02-21T16:18:24.596Z,6.43
2019-02-21T16:20:56.147Z,6.70
2019-02-21T16:23:27.525Z,7.00
2019-02-21T16:26:00.003Z,7.23
2019-02-21T16:28:31.390Z,9.27
2019-02-21T16:31:04.325Z,14.10
2019-02-21T16:33:36.107Z,14.80
2019-02-21T16:36:07.507Z,16.57
2019-02-21T16:38:39.301Z,16.77
2019-02-21T16:41:11.621Z,19.73
2019-02-21T16:43:42.965Z,22.70
2019-02-21T16:46:15.858Z,17.37
2019-02-21T16:48:47.819Z,17.67
2019-02-21T16:51:22.228Z,17.60
2019-02-21T16:53:53.908Z,19.43
2019-02-21T16:56:26.649Z,19.57
2019-02-21T16:59:00.298Z,21.47
2019-02-21T17:01:31.915Z,20.87
2019-02-21T17:04:05.047Z,22.10
2019-02-21T17:06:37.018Z,18.93
2019-02-21T17:09:09.125Z,19.77
2019-02-21T17:11:40.995Z,20.13
2019-02-21T17:14:12.522Z,21.17
2019-02-21T17:16:43.852Z,20.53
2019-02-21T17:19:16.428Z,20.50
2019-02-21T17:21:49.277Z,20.83
2019-02-21T17:24:21.726Z,24.13
2019-02-21T17:26:54.611Z,22.67
2019-02-21T17:29:26.135Z,21.57
2019-02-21T17:31:57.604Z,20.97
2019-02-21T17:34:29.669Z,21.20
2019-02-21T17:37:02.192Z,23.50
2019-02-21T17:39:33.781Z,21.50
2019-02-21T17:42:05.409Z,21.87
2019-02-21T17:44:40.362Z,22.07
2019-02-21T17:47:11.979Z,22.47
2019-02-21T17:49:43.925Z,23.30
2019-02-21T17:52:15.293Z,23.90
2019-02-21T17:54:47.616Z,23.83
2019-02-21T17:57:18.993Z,22.77
2019-02-21T17:59:51.107Z,23.47
2019-02-21T18:02:23.093Z,22.80
2019-02-21T18:04:54.505Z,23.07
2019-02-21T18:07:36.176Z,23.13
2019-02-21T18:09:59.776Z,23.17
2019-02-21T18:12:33.519Z,24.27
2019-02-21T18:15:05.390Z,25.33
2019-02-21T18:17:37.086Z,24.27
2019-02-21T18:20:09.540Z,23.77
2019-02-21T18:22:43.115Z,24.30
2019-02-21T18:25:18.257Z,24.90
2019-02-21T18:27:49.985Z,27.40
2019-02-21T18:30:21.765Z,27.17
2019-02-21T18:32:54.046Z,26.77
2019-02-21T18:35:25.515Z,25.63
2019-02-21T18:37:57.040Z,25.63
2019-02-21T18:40:28.571Z,26.73
2019-02-21T18:42:59.971Z,27.03
2019-02-21T18:45:31.703Z,30.30
2019-02-21T18:48:03.150Z,28.17
2019-02-21T18:50:38.489Z,29.43
2019-02-21T18:53:09.800Z,26.60
2019-02-21T18:55:41.232Z,27.10
2019-02-21T18:58:13.615Z,26.87
2019-02-21T19:00:45.201Z,29.40
2019-02-21T19:03:16.628Z,30.30
2019-02-21T19:05:48.074Z,35.77
2019-02-21T19:08:20.821Z,35.23
2019-02-21T19:10:56.195Z,31.87
2019-02-21T19:13:29.719Z,29.83
2019-02-21T19:16:01.380Z,31.80
2019-02-21T19:18:33.180Z,32.50
2019-02-21T19:21:04.954Z,31.40
2019-02-21T19:23:36.383Z,28.30
2019-02-21T19:26:08.193Z,27.93
2019-02-21T19:28:41.372Z,28.90
2019-02-21T19:31:18.742Z,30.53
2019-02-21T19:33:50.276Z,29.10
2019-02-21T19:36:22.544Z,30.20
2019-02-21T19:38:56.964Z,30.20
2019-02-21T19:41:30.747Z,30.20
2019-02-21T19:44:08.793Z,33.03
2019-02-21T19:46:35.592Z,30.80
2019-02-21T19:49:07.466Z,30.57
2019-02-21T19:51:39.266Z,28.60
2019-02-21T19:54:12.223Z,28.57
2019-02-21T19:56:43.608Z,30.10
2019-02-21T19:59:15.104Z,31.60
2019-02-21T20:01:47.420Z,30.20
2019-02-21T20:04:19.273Z,29.57
2019-02-21T20:06:51.234Z,30.57
2019-02-21T20:09:27.636Z,31.93
2019-02-21T20:11:58.963Z,30.27
2019-02-21T20:14:30.246Z,32.03
2019-02-21T20:17:01.946Z,34.80
2019-02-21T20:19:33.917Z,30.67
2019-02-21T20:22:05.361Z,30.93
2019-02-21T20:24:37.239Z,30.13
2019-02-21T20:27:08.878Z,30.90
2019-02-21T20:29:40.781Z,30.83
2019-02-21T20:32:12.641Z,30.70
2019-02-21T20:34:44.422Z,30.57
2019-02-21T20:37:18.089Z,31.07
2019-02-21T20:39:49.697Z,30.17
2019-02-21T20:42:21.187Z,31.27
2019-02-21T20:44:53.095Z,32.30
2019-02-21T20:47:24.881Z,31.37
2019-02-21T20:49:56.406Z,32.27
2019-02-21T20:52:27.774Z,31.60
2019-02-21T20:55:01.028Z,31.47
2019-02-21T20:57:32.517Z,31.53
2019-02-21T21:00:04.229Z,31.77
2019-02-21T21:02:36.052Z,32.50
2019-02-21T21:05:07.455Z,29.73
2019-02-21T21:07:39.182Z,30.37
2019-02-21T21:10:14.031Z,29.70
2019-02-21T21:12:54.396Z,30.83
2019-02-21T21:15:26.791Z,32.47
2019-02-21T21:17:58.318Z,29.50
2019-02-21T21:20:29.689Z,27.20
2019-02-21T21:23:01.141Z,27.10
2019-02-21T21:25:32.683Z,25.63
2019-02-21T21:28:04.520Z,26.60
2019-02-21T21:30:36.027Z,27.83
2019-02-21T21:33:09.100Z,27.53
2019-02-21T21:35:40.880Z,26.03
2019-02-21T21:38:23.461Z,28.27
2019-02-21T21:40:46.036Z,26.20
2019-02-21T21:43:17.478Z,28.57
2019-02-21T21:45:49.314Z,26.53
2019-02-21T21:48:21.204Z,27.93
2019-02-21T21:50:52.644Z,26.13
2019-02-21T21:53:24.307Z,27.43
2019-02-21T21:55:55.938Z,25.67
2019-02-21T21:58:27.504Z,25.87
2019-02-21T22:00:58.944Z,25.90
2019-02-21T22:03:30.808Z,27.10
2019-02-21T22:06:02.252Z,27.27
2019-02-21T22:08:33.845Z,27.80
2019-02-21T22:11:05.532Z,26.93
2019-02-21T22:13:36.927Z,27.33
2019-02-21T22:16:09.653Z,27.90
2019-02-21T22:18:42.345Z,27.70
2019-02-21T22:21:13.946Z,29.43
2019-02-21T22:23:45.270Z,28.00
2019-02-21T22:26:17.991Z,29.33
2019-02-21T22:28:49.515Z,29.93
2019-02-21T22:31:20.955Z,29.40
2019-02-21T22:33:52.627Z,32.57
2019-02-21T22:36:24.675Z,32.20
2019-02-21T22:38:56.777Z,33.97
2019-02-21T22:41:28.502Z,37.50
2019-02-21T22:44:00.029Z,38.50
2019-02-21T22:46:32.442Z,37.77
2019-02-21T22:49:03.811Z,37.47
2019-02-21T22:51:35.361Z,38.90
2019-02-21T22:54:06.856Z,41.00
2019-02-21T22:56:38.516Z,40.20
2019-02-21T22:59:10.383Z,40.60
2019-02-21T23:01:45.252Z,40.33
2019-02-21T23:05:12.531Z,42.50
2019-02-21T23:08:08.405Z,43.10
2019-02-21T23:10:39.858Z,43.97
2019-02-21T23:13:11.800Z,46.87
2019-02-21T23:15:43.177Z,46.30
2019-02-21T23:18:14.650Z,47.53
2019-02-21T23:20:47.099Z,49.60
2019-02-21T23:23:18.767Z,49.90
2019-02-21T23:25:50.900Z,49.97
2019-02-21T23:28:22.159Z,49.80
2019-02-21T23:30:53.782Z,50.47
2019-02-21T23:33:27.070Z,51.10
2019-02-21T23:35:58.980Z,50.43
2019-02-21T23:38:31.072Z,49.87
2019-02-21T23:41:02.948Z,50.93
2019-02-21T23:43:34.476Z,50.27
2019-02-21T23:46:05.950Z,52.40
2019-02-21T23:48:37.350Z,52.17
2019-02-21T23:51:09.896Z,51.63
2019-02-21T23:53:41.440Z,51.97
2019-02-21T23:56:13.444Z,51.57
2019-02-21T23:58:44.995Z,50.70
